Time;durP1;ratioP1;P1;durP2;ratioP2;P2;SDS_P1;SDS_P2;PMS_P1;PMS_P2;Temp;Humidity;BMP_temperature;BMP_pressure;BME280_temperature;BME280_humidity;BME280_pressure;Samples;Min_cycle;Max_cycle;Signal;HPM_P1;HPM_P2
2022/02/09 00:05:14;;;;;;;6.10;4.87;;;8.60;99.90;;;9.46;100.00;-20048.84;5032215;28;20253;-62
2022/02/09 00:07:50;;;;;;;6.43;4.87;;;8.60;99.90;;;9.41;100.00;-20047.13;5031187;28;20705;-62
2022/02/09 00:10:19;;;;;;;4.17;3.77;;;8.60;99.90;;;9.54;100.00;-20051.56;5032274;28;20232;-62
2022/02/09 00:12:54;;;;;;;7.10;4.30;;;8.50;99.90;;;9.41;100.00;-20047.13;5031882;28;20667;-62
2022/02/09 00:15:33;;;;;;;5.27;4.00;;;8.50;99.90;;;9.37;100.00;-20045.78;5032612;28;20273;-63
2022/02/09 00:18:11;;;;;;;5.13;4.40;;;8.50;99.90;;;9.57;100.00;-20052.78;5032991;28;20194;-61
2022/02/09 00:21:09;;;;;;;4.70;3.83;;;8.50;99.90;;;9.58;100.00;-20053.13;5032616;28;20767;-63
2022/02/09 00:24:04;;;;;;;4.33;3.80;;;8.60;99.90;;;9.48;100.00;-20049.69;5032041;28;20279;-61
2022/02/09 00:38:01;;;;;;;4.33;3.93;;;8.60;99.90;;;9.53;100.00;-20051.22;4988575;28;20276;-63
2022/02/09 01:11:22;;;;;;;4.67;4.20;;;8.60;99.90;;;9.43;100.00;-20048.00;5031308;28;20226;-63
2022/02/09 01:11:59;;;;;;;5.00;4.50;;;8.60;99.90;;;9.55;100.00;-20052.09;5048646;28;20686;-61
2022/02/09 01:39:47;;;;;;;5.43;4.30;;;8.50;99.90;;;9.36;100.00;-20045.41;5048714;28;20221;-61
2022/02/09 01:56:33;;;;;;;4.10;3.70;;;8.40;99.90;;;9.41;100.00;-20047.13;5030450;28;20647;-62
2022/02/09 01:59:01;;;;;;;4.37;4.00;;;8.40;99.90;;;9.55;100.00;-20051.91;5044189;28;20225;-62
2022/02/09 02:01:30;;;;;;;5.00;4.50;;;8.50;99.90;;;9.53;100.00;-20051.41;5050329;28;20321;-62
2022/02/09 02:03:59;;;;;;;4.47;4.07;;;8.60;99.90;;;9.31;100.00;-20043.88;5050624;28;20635;-62
2022/02/09 02:06:28;;;;;;;4.10;3.70;;;8.50;99.90;;;9.17;100.00;-20039.09;5050683;28;20283;-67
2022/02/09 02:08:56;;;;;;;4.40;4.00;;;8.40;99.90;;;9.34;100.00;-20044.91;5051260;28;20197;-67
2022/02/09 02:11:28;;;;;;;4.70;4.30;;;8.40;99.90;;;9.18;100.00;-20039.44;5051369;28;20662;-66
2022/02/09 02:14:14;;;;;;;4.90;4.40;;;8.40;99.90;;;9.18;100.00;-20039.28;5050647;28;20316;-65
2022/02/09 02:16:43;;;;;;;4.63;3.90;;;8.40;99.90;;;9.15;100.00;-20038.41;5050282;28;20255;-66
2022/02/09 02:19:25;;;;;;;5.10;4.13;;;8.30;99.90;;;9.18;100.00;-20039.28;5043459;28;20226;-65
2022/02/09 02:22:03;;;;;;;4.80;4.40;;;8.30;99.90;;;9.14;100.00;-20037.91;5030558;28;20304;-66
2022/02/09 02:27:37;;;;;;;4.10;3.70;;;8.30;99.90;;;9.20;100.00;-20040.13;5031016;28;20256;-66
2022/02/09 02:33:23;;;;;;;4.87;4.03;;;8.20;99.90;;;9.16;100.00;-20038.75;5000982;28;20310;-66
2022/02/09 02:39:13;;;;;;;4.40;4.00;;;8.20;99.90;;;8.91;100.00;-20030.22;5014321;28;20313;-67
2022/02/09 02:42:37;;;;;;;4.73;4.27;;;8.20;99.90;;;8.93;100.00;-20030.72;5013814;28;20234;-65
2022/02/09 02:45:51;;;;;;;4.50;4.10;;;8.10;99.90;;;8.70;100.00;-20022.88;5013658;28;20285;-66
2022/02/09 02:59:35;;;;;;;3.90;3.50;;;8.00;99.90;;;8.79;100.00;-20025.94;4991758;28;20271;-65
2022/02/09 03:08:24;;;;;;;4.03;3.50;;;8.10;99.90;;;9.11;100.00;-20037.06;5013370;28;20317;-66
2022/02/09 03:13:40;;;;;;;3.97;3.57;;;8.30;99.90;;;9.18;100.00;-20039.44;5008272;28;20255;-67
2022/02/09 03:16:12;;;;;;;4.07;3.10;;;8.30;99.90;;;9.30;100.00;-20043.53;5013695;28;20238;-66
2022/02/09 03:19:06;;;;;;;3.87;3.47;;;8.40;99.90;;;9.33;100.00;-20044.56;5013894;28;20314;-67
2022/02/09 03:21:44;;;;;;;3.63;3.33;;;8.40;99.90;;;9.36;100.00;-20045.41;5013623;28;20199;-65
2022/02/09 03:24:16;;;;;;;3.67;3.20;;;8.50;99.90;;;9.42;100.00;-20047.66;5013903;28;20670;-66
2022/02/09 03:26:59;;;;;;;4.03;3.60;;;8.40;99.90;;;9.36;100.00;-20045.59;5013510;28;20254;-66
2022/02/09 03:43:57;;;;;;;4.00;3.67;;;8.40;99.90;;;9.29;100.00;-20043.19;5012562;28;20313;-66
2022/02/09 03:46:44;;;;;;;3.57;3.10;;;8.40;99.90;;;9.48;100.00;-20049.69;5012872;28;20231;-65
2022/02/09 03:49:29;;;;;;;4.57;3.57;;;8.40;99.90;;;9.25;100.00;-20041.66;5012693;28;20647;-67
2022/02/09 03:52:06;;;;;;;3.87;3.47;;;8.40;99.90;;;9.23;100.00;-20041.16;5014041;28;20242;-66
2022/02/09 03:54:39;;;;;;;3.40;3.10;;;8.40;99.90;;;9.25;100.00;-20041.84;5013105;28;20229;-65
2022/02/09 03:57:22;;;;;;;3.50;3.20;;;8.40;99.90;;;9.50;100.00;-20050.38;5013692;28;20266;-66
2022/02/09 03:59:50;;;;;;;5.43;3.60;;;8.50;99.90;;;9.31;100.00;-20043.88;5011832;28;20301;-66
2022/02/09 04:02:20;;;;;;;3.63;3.33;;;8.40;99.90;;;9.21;100.00;-20040.47;5012856;28;20296;-64
2022/02/09 04:04:54;;;;;;;3.93;3.30;;;8.40;99.90;;;9.27;100.00;-20042.53;5012765;28;20310;-67
2022/02/09 04:07:22;;;;;;;3.50;3.20;;;8.40;99.90;;;9.08;100.00;-20036.03;5012752;28;20269;-62
2022/02/09 04:09:54;;;;;;;3.00;2.80;;;8.40;99.90;;;9.08;100.00;-20036.03;5012883;28;20242;-62
2022/02/09 04:12:33;;;;;;;3.10;2.80;;;8.30;99.90;;;9.20;100.00;-20039.97;5012456;28;20662;-63
2022/02/09 04:15:15;;;;;;;4.47;3.30;;;8.30;99.90;;;9.56;100.00;-20052.25;5013130;28;20213;-61
2022/02/09 04:17:59;;;;;;;3.43;3.13;;;8.40;99.90;;;9.40;100.00;-20046.97;5012366;28;20280;-61
2022/02/09 04:22:23;;;;;;;2.70;2.50;;;8.40;99.90;;;9.23;100.00;-20041.16;5012533;28;20332;-62
2022/02/09 04:37:16;;;;;;;3.33;3.03;;;8.40;99.90;;;9.53;100.00;-20051.22;5012370;28;20238;-61
2022/02/09 04:39:49;;;;;;;3.80;3.20;;;8.40;99.90;;;9.48;100.00;-20049.53;5012217;28;20302;-63
2022/02/09 04:47:57;;;;;;;4.03;3.10;;;8.60;99.90;;;9.52;100.00;-20051.06;5011994;28;20742;-62
2022/02/09 04:50:31;;;;;;;5.20;3.33;;;8.60;99.90;;;9.50;100.00;-20050.38;5012007;28;20250;-63
2022/02/09 04:53:19;;;;;;;3.17;2.97;;;8.60;99.90;;;9.37;100.00;-20045.94;5011870;28;20234;-62
2022/02/09 04:55:55;;;;;;;3.30;3.00;;;8.60;99.90;;;9.56;100.00;-20052.44;5011610;28;20280;-63
2022/02/09 04:58:44;;;;;;;4.37;3.27;;;8.50;99.90;;;9.31;100.00;-20043.88;5011225;28;20254;-63
2022/02/09 05:01:30;;;;;;;3.90;3.43;;;8.50;99.90;;;9.30;100.00;-20043.38;5011768;28;20310;-62
2022/02/09 05:04:14;;;;;;;3.70;3.40;;;8.50;99.90;;;9.14;100.00;-20038.06;5011380;28;20230;-62
2022/02/09 05:18:03;;;;;;;3.60;3.30;;;8.50;99.90;;;9.39;100.00;-20046.44;5011672;28;20207;-62
2022/02/09 05:23:40;;;;;;;4.10;3.30;;;8.50;99.90;;;9.60;100.00;-20053.63;5011526;28;20313;-62
2022/02/09 05:26:20;;;;;;;3.83;3.53;;;8.50;99.90;;;9.48;100.00;-20049.53;5011368;28;20499;-63
2022/02/09 05:28:49;;;;;;;5.07;3.20;;;8.50;99.90;;;9.28;100.00;-20042.69;5011197;28;20237;-62
2022/02/09 05:31:17;;;;;;;3.63;3.33;;;8.50;99.90;;;9.22;100.00;-20040.81;5011415;28;20229;-63
2022/02/09 05:33:47;;;;;;;5.90;3.63;;;8.40;99.90;;;9.45;100.00;-20048.66;5011275;28;20657;-63
2022/02/09 05:36:16;;;;;;;3.60;3.30;;;8.40;99.90;;;9.39;100.00;-20046.44;5011749;28;20297;-61
2022/02/09 05:38:46;;;;;;;3.30;3.00;;;8.40;99.90;;;9.37;100.00;-20045.78;5011291;28;20223;-62
2022/02/09 05:41:14;;;;;;;3.40;3.10;;;8.40;99.90;;;9.43;100.00;-20047.81;5011398;28;20644;-63
2022/02/09 05:43:42;;;;;;;3.50;3.20;;;8.40;99.90;;;9.25;100.00;-20041.84;5010993;28;20308;-63
2022/02/09 05:49:32;;;;;;;3.37;2.93;;;8.40;99.90;;;9.28;100.00;-20042.69;4988700;28;20227;-62
2022/02/09 05:52:03;;;;;;;3.20;2.90;;;8.40;99.90;;;9.40;100.00;-20046.97;4989009;28;20254;-62
2022/02/09 05:55:03;;;;;;;3.07;2.77;;;8.40;99.90;;;9.25;100.00;-20041.84;5002387;28;20257;-63
2022/02/09 05:57:44;;;;;;;3.60;3.30;;;8.40;99.90;;;9.32;100.00;-20044.22;5011231;28;20353;-62
2022/02/09 06:00:14;;;;;;;3.77;3.37;;;8.40;99.90;;;9.35;100.00;-20045.09;5011461;28;20627;-62
2022/02/09 06:02:42;;;;;;;3.20;3.00;;;8.40;99.90;;;9.55;100.00;-20052.09;5010648;28;20216;-61
2022/02/09 06:05:12;;;;;;;3.93;3.57;;;8.50;99.90;;;9.52;100.00;-20051.06;5010910;28;20273;-69
2022/02/09 06:07:40;;;;;;;3.30;3.00;;;8.50;99.90;;;9.35;100.00;-20045.09;5014312;28;20702;-68
2022/02/09 06:10:17;;;;;;;3.27;2.97;;;8.50;99.90;;;9.19;100.00;-20039.63;5014952;28;20300;-66
2022/02/09 06:12:50;;;;;;;3.67;3.10;;;8.50;99.90;;;9.23;100.00;-20041.16;5014682;28;20577;-66
2022/02/09 06:15:45;;;;;;;3.30;3.00;;;8.40;99.90;;;9.19;100.00;-20039.63;5014869;28;20541;-66
2022/02/09 06:20:58;;;;;;;3.13;2.83;;;8.40;99.90;;;9.17;100.00;-20039.09;5014294;28;20262;-67
2022/02/09 06:23:26;;;;;;;3.90;3.37;;;8.30;99.90;;;9.27;100.00;-20042.34;5014446;28;20253;-66
2022/02/09 06:25:56;;;;;;;3.60;3.30;;;8.40;99.90;;;9.25;100.00;-20041.84;5014265;28;20253;-67
2022/02/09 06:28:24;;;;;;;4.00;3.30;;;8.40;99.90;;;9.47;100.00;-20049.19;5014315;28;20254;-67
2022/02/09 06:30:53;;;;;;;3.40;3.17;;;8.50;99.90;;;9.41;100.00;-20047.13;5014480;28;20225;-66
2022/02/09 06:33:21;;;;;;;3.93;3.53;;;8.40;99.90;;;9.42;100.00;-20047.47;5014536;28;20613;-66
2022/02/09 06:35:51;;;;;;;5.47;4.37;;;8.50;99.90;;;9.37;100.00;-20045.78;5014564;28;20207;-67
2022/02/09 06:38:21;;;;;;;3.47;3.17;;;8.50;99.90;;;9.26;100.00;-20042.19;5013908;28;20639;-67
2022/02/09 06:40:53;;;;;;;4.07;3.70;;;8.50;99.90;;;9.23;100.00;-20041.16;5013719;28;20370;-67
2022/02/09 06:43:22;;;;;;;4.90;3.77;;;8.40;99.90;;;9.15;100.00;-20038.25;5014216;28;20257;-67
2022/02/09 06:45:51;;;;;;;4.40;4.00;;;8.40;99.90;;;9.36;100.00;-20045.59;5014016;28;20280;-68
2022/02/09 06:48:19;;;;;;;4.37;3.97;;;8.40;99.90;;;9.22;100.00;-20040.81;5014962;28;20225;-67
2022/02/09 06:50:55;;;;;;;3.57;3.27;;;8.40;99.90;;;9.41;100.00;-20047.31;5014169;28;20294;-68
2022/02/09 06:53:31;;;;;;;4.23;3.90;;;8.50;99.90;;;9.52;100.00;-20051.06;5014099;28;20316;-68
2022/02/09 06:56:02;;;;;;;4.20;3.40;;;8.40;99.90;;;9.57;100.00;-20052.78;5013622;28;20752;-67
2022/02/09 06:58:58;;;;;;;4.73;3.37;;;8.50;99.90;;;9.51;100.00;-20050.53;5013142;28;20812;-68
2022/02/09 07:01:26;;;;;;;4.03;3.60;;;8.60;99.90;;;9.31;100.00;-20043.72;5013430;28;20250;-67
2022/02/09 07:03:54;;;;;;;3.83;3.33;;;8.50;99.90;;;9.44;100.00;-20048.31;5013873;28;20225;-62
2022/02/09 07:06:22;;;;;;;3.43;3.13;;;8.50;99.90;;;9.44;100.00;-20048.31;5013695;28;20230;-63
2022/02/09 07:08:50;;;;;;;4.40;4.00;;;8.50;99.90;;;9.21;100.00;-20040.31;5014365;28;20300;-63
2022/02/09 07:11:19;;;;;;;3.93;3.53;;;8.50;99.90;;;9.49;100.00;-20049.88;5013812;28;20281;-62
2022/02/09 07:13:48;;;;;;;4.07;3.67;;;8.50;99.90;;;9.42;100.00;-20047.66;5013510;28;20303;-63
2022/02/09 07:16:17;;;;;;;5.27;4.77;;;8.50;99.90;;;9.35;100.00;-20045.25;5013669;28;20655;-62
2022/02/09 07:18:47;;;;;;;6.50;5.77;;;8.50;99.90;;;9.43;100.00;-20048.00;5013598;28;20242;-64
2022/02/09 07:21:20;;;;;;;3.40;3.10;;;8.50;99.90;;;9.46;100.00;-20048.84;5014996;28;20190;-63
2022/02/09 07:23:50;;;;;;;3.90;3.50;;;8.50;99.90;;;9.50;100.00;-20050.22;5013829;28;20267;-60
2022/02/09 07:26:25;;;;;;;3.53;3.23;;;8.50;99.90;;;9.51;100.00;-20050.72;5012345;28;20234;-68
2022/02/09 07:28:56;;;;;;;3.60;3.20;;;8.50;99.90;;;9.53;100.00;-20051.41;5012730;28;20264;-69
2022/02/09 07:31:24;;;;;;;4.00;3.60;;;8.60;99.90;;;9.23;100.00;-20041.16;5012897;28;20252;-69
2022/02/09 07:33:53;;;;;;;4.47;4.07;;;8.50;99.90;;;9.24;100.00;-20041.31;4996917;28;20209;-68
2022/02/09 07:36:21;;;;;;;4.07;3.43;;;8.50;99.90;;;9.31;100.00;-20043.72;4998385;28;20195;-69
2022/02/09 07:38:50;;;;;;;3.90;3.50;;;8.40;99.90;;;9.27;100.00;-20042.53;5012477;28;20310;-67
2022/02/09 07:41:18;;;;;;;4.70;4.23;;;8.40;99.90;;;9.34;100.00;-20044.75;5012694;28;20687;-65
2022/02/09 07:43:51;;;;;;;7.17;3.47;;;8.50;99.90;;;9.35;100.00;-20045.25;4998733;28;20231;-69
2022/02/09 07:46:37;;;;;;;4.00;3.60;;;8.50;99.90;;;9.51;100.00;-20050.53;4993693;28;20290;-68
2022/02/09 07:49:09;;;;;;;4.20;3.43;;;8.50;99.90;;;9.69;100.00;-20056.88;4993274;28;20239;-69
2022/02/09 07:51:44;;;;;;;3.47;3.17;;;8.70;99.90;;;9.71;100.00;-20057.38;5000544;28;20187;-66
2022/02/09 07:54:12;;;;;;;2.60;2.40;;;8.70;99.90;;;9.58;100.00;-20052.94;5013166;28;20222;-70
2022/02/09 07:56:44;;;;;;;3.27;2.40;;;8.70;99.90;;;9.64;100.00;-20055.00;5012551;28;20698;-70
2022/02/09 07:59:15;;;;;;;2.50;2.30;;;8.70;99.90;;;9.62;100.00;-20054.31;5012581;28;20257;-71
2022/02/09 08:01:46;;;;;;;2.70;2.50;;;8.70;99.90;;;9.71;100.00;-20057.38;5012706;28;20308;-71
2022/02/09 08:04:15;;;;;;;3.17;2.87;;;8.70;99.90;;;9.71;100.00;-20057.56;5012681;28;20317;-71
2022/02/09 08:06:44;;;;;;;2.70;2.50;;;8.80;99.90;;;9.65;100.00;-20055.50;5012091;28;20203;-67
2022/02/09 08:09:19;;;;;;;3.10;2.80;;;8.80;99.90;;;9.71;100.00;-20057.56;5012645;28;20250;-70
2022/02/09 08:11:56;;;;;;;2.90;2.70;;;8.80;99.90;;;9.77;100.00;-20059.59;5012082;28;20253;-67
2022/02/09 08:28:46;;;;;;;4.57;3.00;;;8.90;99.90;;;9.80;100.00;-20060.47;5010814;28;20602;-63
2022/02/09 08:31:45;;;;;;;4.33;3.20;;;8.90;99.90;;;9.79;100.00;-20060.28;5011694;28;20741;-63
2022/02/09 08:34:15;;;;;;;3.60;3.30;;;8.90;99.90;;;9.93;100.00;-20064.72;5011945;28;20230;-63
2022/02/09 08:36:44;;;;;;;4.20;2.30;;;9.00;99.90;;;10.05;100.00;-20069.00;5011672;28;20234;-61
2022/02/09 08:39:15;;;;;;;3.63;2.83;;;9.00;99.90;;;10.00;100.00;-20067.28;5012468;28;20504;-63
2022/02/09 08:41:44;;;;;;;4.10;2.83;;;9.00;99.90;;;9.97;100.00;-20066.25;5011446;28;20227;-62
2022/02/09 08:44:12;;;;;;;3.57;2.73;;;9.00;99.90;;;9.96;100.00;-20065.75;5010940;28;20230;-63
2022/02/09 08:46:42;;;;;;;3.13;2.70;;;9.00;99.90;;;10.24;100.00;-20075.50;5011797;28;20243;-62
2022/02/09 08:49:11;;;;;;;2.77;2.40;;;9.10;99.90;;;10.05;100.00;-20068.81;5011604;28;20282;-61
2022/02/09 08:51:41;;;;;;;2.30;2.00;;;9.10;99.90;;;9.84;100.00;-20061.81;5011342;28;20325;-61
2022/02/09 08:54:11;;;;;;;2.80;2.50;;;9.00;99.90;;;10.02;100.00;-20067.81;5012133;28;20199;-59
2022/02/09 08:56:39;;;;;;;4.37;2.47;;;9.10;99.90;;;9.88;100.00;-20063.34;5011334;28;20460;-59
2022/02/09 08:59:08;;;;;;;2.73;2.43;;;9.00;99.90;;;9.96;100.00;-20065.94;5011057;28;20230;-59
2022/02/09 09:01:41;;;;;;;2.60;2.40;;;9.00;99.90;;;9.94;100.00;-20065.25;5012097;28;20557;-62
2022/02/09 09:04:17;;;;;;;2.57;2.27;;;9.00;99.90;;;10.04;100.00;-20068.66;5011438;28;20281;-60
2022/02/09 09:06:53;;;;;;;2.40;2.20;;;9.00;99.90;;;10.09;100.00;-20070.19;5011492;28;20265;-60
2022/02/09 09:09:41;;;;;;;3.07;2.30;;;9.00;99.90;;;10.06;100.00;-20069.16;5011710;28;20646;-60
2022/02/09 10:02:03;;;;;;;2.83;2.47;;;9.60;99.90;;;10.75;100.00;-20092.91;4968080;28;20284;-68
2022/02/09 10:04:58;;;;;;;2.70;2.50;;;9.70;99.90;;;10.78;100.00;-20093.78;5010930;28;20710;-69
2022/02/09 10:34:06;;;;;;;3.23;2.43;;;9.80;99.90;;;10.87;100.00;-20096.84;5083729;28;21223;-69
2022/02/09 10:36:49;;;;;;;2.80;2.60;;;9.80;99.90;;;10.96;100.00;-20099.91;5047142;28;20205;-69
2022/02/09 10:39:24;;;;;;;3.27;2.60;;;9.80;99.90;;;11.05;100.00;-20103.00;5068516;28;20208;-68
2022/02/09 10:42:02;;;;;;;4.83;2.40;;;9.90;99.90;;;11.27;100.00;-20110.50;5067354;28;20228;-69
2022/02/09 10:44:45;;;;;;;2.67;2.20;;;9.90;99.90;;;11.35;100.00;-20113.22;5047496;28;20704;-69
2022/02/09 10:47:24;;;;;;;3.00;2.60;;;10.10;99.90;;;11.07;100.00;-20103.69;5047961;28;20257;-68
2022/02/09 10:50:17;;;;;;;3.00;2.53;;;10.00;99.90;;;10.90;100.00;-20098.03;5048037;28;20712;-68
2022/02/09 10:52:49;;;;;;;2.60;2.40;;;10.00;99.90;;;11.05;100.00;-20103.16;5047844;28;20734;-68
2022/02/09 10:55:35;;;;;;;2.50;2.30;;;10.00;99.90;;;11.09;100.00;-20104.34;5048116;28;20214;-68
2022/02/09 10:58:08;;;;;;;3.87;2.30;;;10.00;99.90;;;11.25;100.00;-20109.81;5047605;28;20252;-67
2022/02/09 11:00:37;;;;;;;4.57;2.70;;;10.10;99.90;;;11.29;100.00;-20111.19;5048434;28;20193;-68
2022/02/09 11:03:05;;;;;;;2.50;2.27;;;10.10;99.90;;;11.23;100.00;-20109.13;5027569;28;20230;-68
2022/02/09 11:05:36;;;;;;;4.37;2.77;;;10.10;99.90;;;11.50;100.00;-20118.19;5027819;28;20222;-69
2022/02/09 11:08:05;;;;;;;3.63;2.93;;;10.20;99.90;;;11.58;100.00;-20121.09;5027594;28;20268;-68
2022/02/09 11:10:34;;;;;;;3.90;2.57;;;10.30;99.90;;;11.72;100.00;-20125.88;5027780;28;20320;-69
2022/02/09 11:13:04;;;;;;;3.07;2.60;;;10.40;99.90;;;11.61;100.00;-20121.94;5027437;28;20260;-68
2022/02/09 11:15:32;;;;;;;3.50;2.53;;;10.40;99.90;;;11.67;100.00;-20124.16;5028286;28;20277;-68
2022/02/09 11:18:00;;;;;;;3.47;2.93;;;10.40;99.90;;;11.78;100.00;-20127.94;5027765;28;20233;-69
2022/02/09 11:20:31;;;;;;;2.50;2.30;;;10.50;99.90;;;11.58;100.00;-20121.09;5027610;28;20273;-68
2022/02/09 11:23:00;;;;;;;3.47;2.80;;;10.40;99.90;;;11.70;100.00;-20125.03;5027529;28;20218;-68
2022/02/09 11:25:32;;;;;;;3.43;2.20;;;10.40;99.90;;;11.59;100.00;-20121.44;5027709;28;20226;-69
2022/02/09 11:28:25;;;;;;;2.77;2.57;;;10.50;99.90;;;11.47;100.00;-20117.16;5027295;28;20273;-70
2022/02/09 11:31:08;;;;;;;2.73;2.50;;;10.40;99.90;;;11.67;100.00;-20124.00;5029421;28;20261;-69
2022/02/09 11:34:03;;;;;;;3.83;2.90;;;10.50;99.90;;;11.66;100.00;-20123.66;5047892;28;20257;-68
2022/02/09 11:36:37;;;;;;;4.67;2.47;;;10.50;99.90;;;12.00;99.83;-20135.44;5044590;28;20627;-69
2022/02/09 11:39:13;;;;;;;2.73;2.20;;;10.70;99.90;;;11.99;100.00;-20135.09;5048361;28;20259;-69
2022/02/09 11:41:55;;;;;;;3.20;2.60;;;10.70;99.90;;;11.79;100.00;-20128.09;5047230;28;20228;-69
2022/02/09 11:44:49;;;;;;;2.70;2.33;;;10.70;99.90;;;11.74;100.00;-20126.38;5019143;28;20234;-69
2022/02/09 11:47:44;;;;;;;2.87;2.27;;;10.70;99.90;;;11.85;100.00;-20130.16;5013677;28;20246;-68
2022/02/09 11:58:57;;;;;;;2.77;2.50;;;10.70;99.90;;;11.70;100.00;-20125.19;5013327;28;20626;-69
2022/02/09 12:10:23;;;;;;;2.57;2.37;;;10.60;99.90;;;11.71;100.00;-20125.53;5013683;28;20717;-71
2022/02/09 12:13:04;;;;;;;2.80;2.60;;;10.60;99.90;;;11.78;100.00;-20127.75;5013859;28;20309;-72
2022/02/09 12:18:58;;;;;;;3.10;2.80;;;10.50;99.90;;;11.43;100.00;-20115.81;5013014;28;20619;-73
2022/02/09 12:21:41;;;;;;;3.70;2.50;;;10.40;99.90;;;11.21;100.00;-20108.47;5028454;28;20265;-73
2022/02/09 12:24:25;;;;;;;3.20;2.90;;;10.40;99.90;;;11.42;100.00;-20115.63;5013860;28;20309;-73
2022/02/09 12:26:57;;;;;;;3.47;2.90;;;10.30;99.90;;;11.25;100.00;-20109.81;5031749;28;20218;-70
2022/02/09 12:29:34;;;;;;;2.77;2.57;;;10.20;99.90;;;11.34;100.00;-20112.91;5052861;28;20225;-71
2022/02/09 12:32:23;;;;;;;5.37;3.07;;;10.20;99.90;;;11.26;100.00;-20110.00;5052808;28;20674;-74
2022/02/09 12:34:57;;;;;;;4.10;2.60;;;10.20;99.90;;;11.18;100.00;-20107.25;5052582;28;20229;-74
2022/02/09 12:37:27;;;;;;;3.30;2.70;;;10.20;99.90;;;11.19;100.00;-20107.78;5042870;28;20708;-73
2022/02/09 12:39:59;;;;;;;3.00;2.40;;;10.10;99.90;;;11.24;100.00;-20109.47;5033047;28;20198;-72
2022/02/09 12:42:31;;;;;;;3.20;2.90;;;10.10;99.90;;;11.13;100.00;-20105.56;5033320;28;20589;-72
2022/02/09 12:45:09;;;;;;;3.10;2.80;;;10.10;99.90;;;11.07;100.00;-20103.84;5013144;28;20233;-73
2022/02/09 12:47:40;;;;;;;3.67;3.07;;;10.10;99.90;;;11.25;100.00;-20109.81;5012629;28;20226;-73
2022/02/09 12:50:12;;;;;;;3.17;2.90;;;10.10;99.90;;;11.46;100.00;-20116.81;5012866;28;20325;-74
2022/02/09 12:52:42;;;;;;;4.47;3.20;;;10.20;99.90;;;11.36;100.00;-20113.59;5012605;28;20725;-71
2022/02/09 12:55:15;;;;;;;3.60;3.30;;;10.20;99.90;;;11.25;100.00;-20109.66;5012226;28;20718;-72
2022/02/09 12:57:48;;;;;;;4.63;3.70;;;10.20;99.90;;;11.36;100.00;-20113.41;5012534;28;20599;-72
2022/02/09 13:00:30;;;;;;;4.90;4.10;;;10.20;99.90;;;11.54;100.00;-20119.72;5013336;28;20222;-74
2022/02/09 13:03:00;;;;;;;6.00;4.87;;;10.30;99.90;;;11.36;100.00;-20113.59;5012527;28;20356;-74
2022/02/09 13:05:30;;;;;;;5.23;4.73;;;10.30;99.90;;;11.27;100.00;-20110.50;5010974;28;20254;-74
2022/02/09 13:08:01;;;;;;;4.97;4.47;;;10.30;99.90;;;11.38;100.00;-20114.25;5012379;28;20891;-75
2022/02/09 13:10:32;;;;;;;5.83;5.23;;;10.30;99.90;;;11.44;100.00;-20116.13;5012755;28;20740;-76
2022/02/09 13:13:07;;;;;;;6.07;5.17;;;10.40;99.90;;;11.47;100.00;-20117.16;5012410;28;20234;-73
2022/02/09 13:15:45;;;;;;;5.70;4.53;;;10.40;99.90;;;11.41;100.00;-20115.13;5013022;28;20191;-71
2022/02/09 13:18:52;;;;;;;6.20;5.23;;;10.40;99.90;;;11.44;100.00;-20116.31;5012435;28;20222;-69
2022/02/09 14:07:56;;;;;;;5.20;4.70;;;10.20;99.90;;;11.23;100.00;-20108.97;4935952;28;20229;-64
2022/02/09 14:13:22;;;;;;;3.70;3.40;;;10.20;99.90;;;11.27;100.00;-20110.34;4990357;28;20277;-63
2022/02/09 14:16:23;;;;;;;4.83;3.40;;;10.30;99.90;;;11.30;100.00;-20111.38;4991054;28;20233;-62
2022/02/09 14:35:48;;;;;;;4.40;3.83;;;10.20;99.90;;;11.24;100.00;-20109.47;5030594;28;20298;-62
2022/02/09 14:52:28;;;;;;;4.63;3.87;;;10.00;99.90;;;10.80;100.00;-20094.44;5010563;28;20284;-70
2022/02/09 14:55:02;;;;;;;4.00;3.60;;;10.00;99.90;;;10.70;100.00;-20091.22;5010569;28;20253;-74
2022/02/09 14:57:37;;;;;;;5.17;3.70;;;9.90;99.90;;;10.83;100.00;-20095.47;5011147;28;20266;-63
2022/02/09 15:00:12;;;;;;;5.33;3.73;;;9.90;99.90;;;10.96;100.00;-20100.09;5029638;28;20232;-70
2022/02/09 15:08:23;;;;;;;5.30;4.10;;;9.90;99.90;;;10.81;100.00;-20094.78;5010426;28;20301;-66
2022/02/09 15:11:04;;;;;;;5.57;4.00;;;9.90;99.90;;;10.81;100.00;-20094.97;5010573;28;20337;-65
2022/02/09 15:13:42;;;;;;;5.03;4.37;;;9.90;99.90;;;10.81;100.00;-20094.78;5010357;28;20250;-67
2022/02/09 15:16:18;;;;;;;4.57;3.80;;;9.90;99.90;;;10.93;100.00;-20099.06;5014499;28;20669;-63
2022/02/09 15:19:12;;;;;;;4.33;3.60;;;9.90;99.90;;;10.95;100.00;-20099.56;5030877;28;20240;-62
2022/02/09 15:24:39;;;;;;;6.47;3.53;;;9.90;99.90;;;10.91;100.00;-20098.22;5014363;28;20201;-66
2022/02/09 15:27:13;;;;;;;4.77;3.60;;;9.90;99.90;;;10.78;100.00;-20093.78;5034055;28;20202;-67
2022/02/09 15:29:43;;;;;;;4.03;3.67;;;9.90;99.90;;;10.92;100.00;-20098.56;5033495;28;20225;-63
2022/02/09 15:32:22;;;;;;;3.80;3.47;;;9.90;99.90;;;10.86;100.00;-20096.50;5046489;28;20240;-63
2022/02/09 15:34:56;;;;;;;3.40;3.07;;;9.90;99.90;;;10.73;100.00;-20092.06;5053465;28;20252;-67
2022/02/09 15:37:34;;;;;;;5.07;3.53;;;9.90;99.90;;;10.69;100.00;-20090.88;5043831;28;20502;-67
2022/02/09 15:40:09;;;;;;;4.30;3.90;;;9.80;99.90;;;10.84;100.00;-20095.81;5033723;28;20241;-63
2022/02/09 15:56:35;;;;;;;5.30;4.80;;;9.80;99.90;;;10.65;100.00;-20089.31;5014026;28;20237;-65
2022/02/09 15:59:38;;;;;;;5.03;4.23;;;9.80;99.90;;;10.73;100.00;-20092.22;5013602;28;20253;-62
2022/02/09 16:11:02;;;;;;;4.77;3.70;;;9.60;99.90;;;10.28;100.00;-20076.69;5088352;27;21022;-59
2022/02/09 16:16:42;;;;;;;4.07;3.67;;;9.50;99.90;;;10.60;100.00;-20087.63;5048534;28;20232;-68
2022/02/09 16:22:00;;;;;;;6.93;3.80;;;9.50;99.90;;;10.45;100.00;-20082.50;5048748;28;20189;-65
2022/02/09 16:24:54;;;;;;;6.73;5.53;;;9.50;99.90;;;10.58;100.00;-20086.94;5048543;28;20225;-55
2022/02/09 16:33:15;;;;;;;4.90;3.03;;;9.50;99.90;;;10.54;100.00;-20085.75;5028654;28;20232;-67
2022/02/09 16:38:52;;;;;;;4.00;3.40;;;9.50;99.90;;;10.35;100.00;-20079.09;5068208;28;20311;-66
2022/02/09 16:44:31;;;;;;;3.20;2.90;;;9.40;99.90;;;10.23;100.00;-20074.97;5025742;28;20914;-64
2022/02/09 16:46:59;;;;;;;3.93;3.57;;;9.40;99.90;;;10.36;100.00;-20079.41;5025402;28;20238;-63
2022/02/09 16:49:32;;;;;;;4.30;3.37;;;9.40;99.90;;;10.48;100.00;-20083.69;5039145;28;20253;-63
2022/02/09 16:52:06;;;;;;;3.70;3.40;;;9.40;99.90;;;10.31;100.00;-20077.72;5047256;28;20754;-62
2022/02/09 16:54:44;;;;;;;3.60;3.30;;;9.40;99.90;;;10.23;100.00;-20074.97;5048119;28;20222;-65
2022/02/09 17:11:12;;;;;;;4.07;2.90;;;9.40;99.90;;;10.27;100.00;-20076.34;5046302;28;20221;-66
2022/02/09 17:19:51;;;;;;;3.40;3.00;;;9.30;99.90;;;9.96;100.00;-20065.94;5066682;28;20227;-65
2022/02/09 17:22:19;;;;;;;3.60;3.30;;;9.30;99.90;;;10.13;100.00;-20071.72;5053022;28;20221;-66
2022/02/09 17:24:47;;;;;;;2.87;2.67;;;9.20;99.90;;;10.04;100.00;-20068.66;5053511;28;20400;-66
2022/02/09 17:27:19;;;;;;;3.30;3.00;;;9.20;99.90;;;10.04;100.00;-20068.47;5053744;28;20324;-68
2022/02/09 17:30:12;;;;;;;3.90;3.17;;;9.20;99.90;;;10.16;100.00;-20072.59;5052954;28;20582;-72
2022/02/09 17:32:50;;;;;;;4.23;3.83;;;9.20;99.90;;;10.25;100.00;-20075.66;5053246;28;20229;-73
2022/02/09 17:35:22;;;;;;;3.93;3.60;;;9.20;99.90;;;10.07;100.00;-20069.69;5053146;28;20312;-73
2022/02/09 17:38:17;;;;;;;4.30;3.93;;;9.20;99.90;;;10.06;100.00;-20069.34;5053406;28;20309;-73
2022/02/09 17:57:43;;;;;;;3.60;3.17;;;9.30;99.90;;;10.12;100.00;-20071.22;5033735;28;20304;-73
2022/02/09 18:00:16;;;;;;;4.10;3.40;;;9.30;99.90;;;10.11;100.00;-20070.88;5043257;28;20623;-74
2022/02/09 18:02:47;;;;;;;4.30;3.90;;;9.30;99.90;;;10.19;100.00;-20073.78;5032761;28;20276;-74
2022/02/09 18:05:23;;;;;;;3.97;3.13;;;9.30;99.90;;;9.96;100.00;-20065.94;5033179;28;20272;-75
2022/02/09 18:07:56;;;;;;;4.13;3.73;;;9.20;99.90;;;10.06;100.00;-20069.16;5022901;28;20230;-74
2022/02/09 18:10:38;;;;;;;4.40;3.47;;;9.20;99.90;;;10.13;100.00;-20071.72;5013017;28;20250;-76
2022/02/09 18:13:41;;;;;;;4.00;3.60;;;9.20;99.90;;;10.11;100.00;-20070.88;5013397;28;20305;-75
2022/02/09 18:27:44;;;;;;;4.00;3.60;;;9.20;99.90;;;10.08;100.00;-20070.03;5061716;28;20274;-67